Airfield :
LOGIN :

Register | Disclaimer

   EN    FR    IT 

 










Legend :    VFR   Marginal VFR   IFR   Intensive IFR   Very Intensive IFR
Visi :
Ceiling :
>= 8 km
>= 3000ft
5 to 8 km
1000 to 3000 ft
1500m to 5 km
500 to 1000 ft
800 to 1500m
200 to 500 ft
< 800m
< 200 ft
Symbols :   Thunderstorms  Fog  Heavy snow  Heavy precipitations  Wind > 20 kt
SIGMETs :     Misc.  Thunderstorms  Icing  Turbulence  Mountain Waves  Volcanic Ashes






- Airport Elevation : 788 ft
- IATA code : DCM


LFCK - Castres-Mazamet

CURRENT METAR :
  • 161100Z AUTO 27010KT 240V320 CAVOK 10/M02 Q1020 BECMG SCT060TCU

EXPIRED METARs :
  • 161030Z AUTO 26009KT 230V300 CAVOK 10/M02 Q1020 BECMG SCT060TCU
  • 161000Z AUTO 27010KT CAVOK 09/M01 Q1020 BECMG SCT060TCU
  • 160930Z AUTO 28011KT 250V310 CAVOK 08/M02 Q1020 BECMG SCT060TCU
  • 160900Z AUTO 27009KT 240V300 CAVOK 08/M02 Q1020 BECMG SCT060TCU
  • 160830Z AUTO 28006KT 240V310 CAVOK 07/M01 Q1020 NOSIG

TAF TAF LFCK
Valid from the 16 at 09:00 until the 16 at 18:00 UTC


160800Z 1609/1618 29006KT CAVOK
BECMG 1610/1612 SCT060TCU



MET'MAP, your aeronautical weather chart ! - Copyright ORBIFLY December 2007 - Disclaimer

ORBIFLY MET'MAP TEAM :

Programming & Development : Alexandra Zaïnal
Concept & original design : Baudouin d'Aumeries
Assistance for programming : Marc-Olivier Méhu
Technical & hardware support : Manuel Goepfert

Contact : metmap@orbifly.com




SOURCES & CREDITS :

   NOAA